Time;durP1;ratioP1;P1;durP2;ratioP2;P2;SDS_P1;SDS_P2;PMS_P1;PMS_P2;Temp;Humidity;BMP_temperature;BMP_pressure;BME280_temperature;BME280_humidity;BME280_pressure;Samples;Min_cycle;Max_cycle;Signal;HPM_P1;HPM_P2
2020/05/19 00:01:23;;;;;;;6.5;3.5;;;;;;;13.22;70.6875;943.2287;;;;
2020/05/19 00:04:03;;;;;;;3.9;3.3;;;;;;;13.16;70.32324;943.1701;;;;
2020/05/19 00:06:11;;;;;;;5.5;3.1;;;;;;;13.08;70.21777;943.1208;;;;
2020/05/19 00:08:38;;;;;;;5.4;3.3;;;;;;;12.99;70.59277;943.1037;;;;
2020/05/19 00:11:00;;;;;;;5.5;3.7;;;;;;;12.95;70.74902;943.077;;;;
2020/05/19 00:13:27;;;;;;;4.1;3.1;;;;;;;12.69;71.36035;943.0714;;;;
2020/05/19 00:16:54;;;;;;;4.4;3.2;;;;;;;12.56;71.99316;943.0276;;;;
2020/05/19 00:18:32;;;;;;;16.7;4.8;;;;;;;12.61;71.78125;943.1102;;;;
2020/05/19 00:32:36;;;;;;;8.8;3.9;;;;;;;12.13;74.55859;942.9978;;;;
2020/05/19 00:35:24;;;;;;;5;3.8;;;;;;;12.13;74.2002;943.0338;;;;
2020/05/19 00:37:40;;;;;;;6.2;3.7;;;;;;;12.13;74.27051;942.9572;;;;
2020/05/19 00:40:09;;;;;;;5.2;3.9;;;;;;;12.14;74.10059;943.0251;;;;
2020/05/19 00:45:05;;;;;;;4.6;3.3;;;;;;;12.12;74.05176;943.0089;;;;
2020/05/19 00:47:47;;;;;;;6.1;3.5;;;;;;;12.17;73.56641;943.0262;;;;
2020/05/19 00:49:45;;;;;;;5;3.5;;;;;;;12.08;74.05469;943.0499;;;;
2020/05/19 00:52:14;;;;;;;10.2;4.2;;;;;;;12.06;73.91504;943.0641;;;;
2020/05/19 00:57:05;;;;;;;5.3;3.5;;;;;;;12.09;73.0957;942.9974;;;;
2020/05/19 00:59:30;;;;;;;9.6;3.9;;;;;;;12.08;73.11719;942.9709;;;;
2020/05/19 01:02:03;;;;;;;4.6;3.3;;;;;;;12.03;73.08496;942.9576;;;;
2020/05/19 01:04:40;;;;;;;5.6;3.6;;;;;;;11.94;73.57422;942.9419;;;;
2020/05/19 01:11:56;;;;;;;6.6;3.7;;;;;;;11.81;73.78027;942.8699;;;;
2020/05/19 01:14:33;;;;;;;5.5;3.7;;;;;;;11.74;74.57031;942.8656;;;;
2020/05/19 01:18:55;;;;;;;5.5;3.7;;;;;;;11.76;73.81836;942.7852;;;;
2020/05/19 01:21:23;;;;;;;5.5;3.6;;;;;;;11.81;73.63086;942.7733;;;;
2020/05/19 01:23:48;;;;;;;4.9;3.6;;;;;;;11.77;73.70508;942.774;;;;
2020/05/19 01:26:16;;;;;;;4.6;3.3;;;;;;;11.81;73.54102;942.7338;;;;
2020/05/19 01:28:39;;;;;;;4.7;3.3;;;;;;;11.75;73.75879;942.7117;;;;
2020/05/19 01:33:53;;;;;;;5.7;3.9;;;;;;;11.53;75.09375;942.7605;;;;
2020/05/19 01:35:56;;;;;;;5.8;4.2;;;;;;;11.4;76.09082;942.7051;;;;
2020/05/19 01:38:21;;;;;;;5.5;4;;;;;;;11.29;77.00879;942.6757;;;;
2020/05/19 01:40:46;;;;;;;6.2;4;;;;;;;11.4;75.95313;942.6597;;;;
2020/05/19 01:43:11;;;;;;;6.3;4;;;;;;;11.38;75.82227;942.7383;;;;
2020/05/19 01:45:37;;;;;;;4.7;3.5;;;;;;;11.48;75.05176;942.6242;;;;
2020/05/19 01:48:02;;;;;;;5.5;3.4;;;;;;;11.48;74.92578;942.7072;;;;
2020/05/19 01:50:28;;;;;;;6.3;3.8;;;;;;;11.45;75.0459;942.6805;;;;
2020/05/19 01:52:53;;;;;;;6.3;3.5;;;;;;;11.51;74.8623;942.6375;;;;
2020/05/19 01:55:21;;;;;;;3.8;3.4;;;;;;;11.48;74.69531;942.6314;;;;
2020/05/19 01:57:46;;;;;;;6.4;3.7;;;;;;;11.41;74.89258;942.5374;;;;
2020/05/19 02:02:50;;;;;;;6.2;4;;;;;;;11.25;75.64063;942.5779;;;;
2020/05/19 02:09:57;;;;;;;5.1;3.4;;;;;;;11.23;76.04883;942.6063;;;;
2020/05/19 02:12:22;;;;;;;6.1;4;;;;;;;11.09;76.68848;942.5228;;;;
2020/05/19 02:14:47;;;;;;;7;4.1;;;;;;;11.13;76.4541;942.5097;;;;
2020/05/19 02:17:14;;;;;;;5.1;3.6;;;;;;;11.03;76.38086;942.5172;;;;
2020/05/19 02:19:39;;;;;;;4.4;3.5;;;;;;;11.04;76.41602;942.5356;;;;
2020/05/19 02:22:06;;;;;;;7.8;3.8;;;;;;;11.07;76.34082;942.4818;;;;
2020/05/19 02:24:31;;;;;;;4.4;3.4;;;;;;;11.09;75.97949;942.5165;;;;
2020/05/19 02:27:01;;;;;;;3.9;3.5;;;;;;;11;76.29297;942.447;;;;
2020/05/19 02:29:24;;;;;;;5.9;3.7;;;;;;;10.98;76.72559;942.5536;;;;
2020/05/19 02:31:50;;;;;;;5.2;3.5;;;;;;;10.95;76.65234;942.4832;;;;
2020/05/19 02:34:15;;;;;;;4.5;3.8;;;;;;;10.93;77.05957;942.4564;;;;
2020/05/19 02:36:57;;;;;;;7.4;4.4;;;;;;;10.84;77.38574;942.4709;;;;
2020/05/19 02:39:13;;;;;;;9.3;5.6;;;;;;;10.83;77.31543;942.4462;;;;
2020/05/19 02:41:34;;;;;;;7.8;5.4;;;;;;;10.76;77.65723;942.4409;;;;
2020/05/19 02:43:59;;;;;;;7.8;4.5;;;;;;;10.78;77.47949;942.4277;;;;
2020/05/19 02:46:26;;;;;;;7.1;4.2;;;;;;;10.81;77.20996;942.4412;;;;
2020/05/19 02:49:03;;;;;;;8.6;5;;;;;;;10.86;76.91113;942.3964;;;;
2020/05/19 02:53:57;;;;;;;8.3;4.8;;;;;;;10.85;76.78223;942.3716;;;;
2020/05/19 03:13:31;;;;;;;9.7;4.1;;;;;;;10.72;76.58789;942.3646;;;;
2020/05/19 03:15:34;;;;;;;5.8;3.6;;;;;;;10.71;76.73535;942.3063;;;;
2020/05/19 03:18:00;;;;;;;7.2;4;;;;;;;10.73;76.56836;942.3672;;;;
2020/05/19 03:20:25;;;;;;;5.5;4;;;;;;;10.68;77.04883;942.2795;;;;
2020/05/19 03:22:52;;;;;;;5.7;3.9;;;;;;;10.74;76.61426;942.3043;;;;
2020/05/19 03:25:17;;;;;;;5.8;3.7;;;;;;;10.68;76.86621;942.2675;;;;
2020/05/19 03:27:42;;;;;;;9.3;4.5;;;;;;;10.55;77.18457;942.2525;;;;
2020/05/19 03:30:08;;;;;;;5.5;3.9;;;;;;;10.47;77.58203;942.3063;;;;
2020/05/19 03:32:35;;;;;;;4.3;3.4;;;;;;;10.44;77.9082;942.2261;;;;
2020/05/19 03:35:09;;;;;;;7.9;4;;;;;;;10.46;77.55762;942.2719;;;;
2020/05/19 03:37:26;;;;;;;4.8;3.7;;;;;;;10.3;78.23828;942.2745;;;;
2020/05/19 03:39:58;;;;;;;6.4;4.4;;;;;;;10.07;79.48438;942.2254;;;;
2020/05/19 03:44:49;;;;;;;8.1;5.4;;;;;;;10.1;79.60352;942.1454;;;;
2020/05/19 03:49:44;;;;;;;9.7;5.4;;;;;;;10.19;79.45996;942.163;;;;
2020/05/19 03:54:38;;;;;;;11.3;5.3;;;;;;;10.32;78.99316;942.2023;;;;
2020/05/19 04:10:11;;;;;;;6.6;4.5;;;;;;;10.54;77.34375;942.1831;;;;
2020/05/19 04:12:23;;;;;;;10.1;5;;;;;;;10.56;77.2793;942.2042;;;;
2020/05/19 04:14:55;;;;;;;6.8;4.3;;;;;;;10.5;78.00977;942.188;;;;
2020/05/19 04:19:53;;;;;;;4.5;3.9;;;;;;;10.4;77.91309;942.1185;;;;
2020/05/19 04:34:14;;;;;;;12.3;4.7;;;;;;;10.65;77.53516;942.1636;;;;
2020/05/19 04:56:31;;;;;;;6.6;4.4;;;;;;;10.79;78.92969;942.3696;;;;
2020/05/19 04:58:27;;;;;;;5.4;4.7;;;;;;;10.85;78.12988;942.3541;;;;
2020/05/19 05:00:40;;;;;;;8.9;4.5;;;;;;;10.86;77.84668;942.3438;;;;
2020/05/19 05:03:06;;;;;;;9.8;4.4;;;;;;;10.77;78.04883;942.3535;;;;
2020/05/19 05:05:31;;;;;;;10.5;4.4;;;;;;;10.96;76.97266;942.3078;;;;
2020/05/19 05:07:56;;;;;;;10;4.4;;;;;;;11.06;76.90039;942.2874;;;;
2020/05/19 05:10:21;;;;;;;6.3;4.1;;;;;;;11.32;76.80859;942.2399;;;;
2020/05/19 05:12:48;;;;;;;8.8;3.9;;;;;;;12.69;71.83105;942.2364;;;;
2020/05/19 05:15:13;;;;;;;8.7;3.5;;;;;;;14.33;65.57031;942.187;;;;
2020/05/19 05:17:38;;;;;;;7.7;3.3;;;;;;;16.08;58.83887;942.1642;;;;
2020/05/19 05:20:03;;;;;;;7.8;3;;;;;;;17.32;54.48047;942.1911;;;;
2020/05/19 05:22:30;;;;;;;6.8;2.8;;;;;;;17.88;52.90137;942.1739;;;;
2020/05/19 05:24:55;;;;;;;8.9;2.7;;;;;;;18.61;50.47754;942.1147;;;;
2020/05/19 05:27:21;;;;;;;8.2;3;;;;;;;19.16;48.6543;942.1021;;;;
2020/05/19 05:29:45;;;;;;;7.1;2.5;;;;;;;19.36;48.47754;942.123;;;;
2020/05/19 05:32:12;;;;;;;11.3;3.1;;;;;;;19.56;47.38086;942.0883;;;;
2020/05/19 05:34:37;;;;;;;4.8;2.3;;;;;;;19.29;47.96973;942.0507;;;;
2020/05/19 05:37:06;;;;;;;5.2;2.2;;;;;;;19.64;47.20215;942.0525;;;;
2020/05/19 05:40:02;;;;;;;8.1;2.2;;;;;;;20.21;46.00391;942.0776;;;;
2020/05/19 05:44:39;;;;;;;4.1;2;;;;;;;21.71;41.84961;942.0026;;;;
2020/05/19 05:47:04;;;;;;;6.8;2.2;;;;;;;22.42;41.40039;941.9749;;;;
2020/05/19 05:54:14;;;;;;;6.4;2.3;;;;;;;23.88;37.4043;941.9561;;;;
2020/05/19 05:56:32;;;;;;;8.9;2.2;;;;;;;24.44;36.62695;941.9788;;;;
2020/05/19 05:58:57;;;;;;;4.2;2;;;;;;;24.66;36.16113;941.9568;;;;
2020/05/19 06:01:23;;;;;;;4.6;1.9;;;;;;;24.41;35.61133;941.9364;;;;
2020/05/19 06:03:47;;;;;;;3.3;1.7;;;;;;;24.49;35.66504;941.9604;;;;
2020/05/19 06:06:12;;;;;;;3.2;1.7;;;;;;;24.4;37.51953;941.9214;;;;
2020/05/19 06:08:37;;;;;;;3.5;2;;;;;;;25.36;34.74219;941.9384;;;;
2020/05/19 06:11:04;;;;;;;3.7;1.9;;;;;;;25.88;35.62207;941.9391;;;;
2020/05/19 06:13:29;;;;;;;8.4;2.1;;;;;;;26.69;32.99707;941.916;;;;
2020/05/19 06:15:54;;;;;;;3.4;1.8;;;;;;;26.01;33.10156;941.8699;;;;
2020/05/19 06:18:19;;;;;;;6.5;2.3;;;;;;;26.01;33.75195;941.812;;;;
2020/05/19 06:20:46;;;;;;;8.5;2.5;;;;;;;26.17;33.36133;941.8376;;;;
2020/05/19 06:23:11;;;;;;;7.3;2.7;;;;;;;26.08;33.26074;941.7722;;;;
2020/05/19 06:25:37;;;;;;;8;3.1;;;;;;;25.81;33.22754;941.6967;;;;
2020/05/19 06:28:02;;;;;;;7.6;3.8;;;;;;;26.71;32.57227;941.6702;;;;
2020/05/19 06:30:27;;;;;;;7.2;3.1;;;;;;;27.35;34.14941;941.7107;;;;
2020/05/19 06:32:52;;;;;;;4.3;2.2;;;;;;;28.11;31.77051;941.7158;;;;
2020/05/19 06:35:17;;;;;;;3.6;1.9;;;;;;;28.83;28.8584;941.6997;;;;
2020/05/19 06:37:42;;;;;;;4.7;1.9;;;;;;;28.27;29.72656;941.687;;;;
2020/05/19 06:40:07;;;;;;;3.5;1.6;;;;;;;27.84;32.63086;941.7255;;;;
2020/05/19 06:42:34;;;;;;;3;1.7;;;;;;;28.96;29.81934;941.7512;;;;
2020/05/19 06:44:59;;;;;;;5.5;2;;;;;;;30.47;28.22363;941.6956;;;;
2020/05/19 06:47:25;;;;;;;3.1;1.6;;;;;;;29.62;28.92188;941.7352;;;;
2020/05/19 06:49:51;;;;;;;3.1;1.6;;;;;;;30.58;27.08301;941.6537;;;;
2020/05/19 06:52:16;;;;;;;2.2;1.4;;;;;;;31.68;25.7959;941.6167;;;;
2020/05/19 06:54:41;;;;;;;3.2;1.5;;;;;;;32.47;23.90918;941.6024;;;;
2020/05/19 06:57:07;;;;;;;5.7;1.7;;;;;;;30.31;27.4248;941.6256;;;;
2020/05/19 06:59:32;;;;;;;4.6;1.8;;;;;;;29.85;29.58008;941.5963;;;;
2020/05/19 07:01:57;;;;;;;3.9;1.6;;;;;;;29.35;30.10742;941.5419;;;;
2020/05/19 07:04:23;;;;;;;3.3;1.7;;;;;;;31;26.70215;941.5031;;;;
2020/05/19 07:06:48;;;;;;;3.4;1.4;;;;;;;31.92;24.03613;941.5129;;;;
2020/05/19 07:09:14;;;;;;;3.9;1.4;;;;;;;32.3;26.3584;941.5236;;;;
2020/05/19 07:11:39;;;;;;;3.8;1.5;;;;;;;33.1;23.94238;941.5243;;;;
2020/05/19 07:14:05;;;;;;;3.3;1.4;;;;;;;33.84;23.22363;941.5115;;;;
2020/05/19 07:16:30;;;;;;;2.3;1.3;;;;;;;32.84;25.18945;941.5535;;;;
2020/05/19 07:18:57;;;;;;;2.3;1.5;;;;;;;33.59;23.07813;941.4739;;;;
2020/05/19 07:21:27;;;;;;;4;1.6;;;;;;;33.81;23.05371;941.4483;;;;
2020/05/19 07:23:50;;;;;;;3.7;1.5;;;;;;;33.01;24.8623;941.4082;;;;
2020/05/19 07:26:13;;;;;;;3.1;1.7;;;;;;;33.91;24.75488;941.4233;;;;
2020/05/19 07:28:38;;;;;;;3.4;1.5;;;;;;;33.79;23.00391;941.4345;;;;
2020/05/19 07:31:03;;;;;;;2.5;1.6;;;;;;;32.76;24.77637;941.442;;;;
2020/05/19 07:33:29;;;;;;;5.6;1.9;;;;;;;32.82;24.69629;941.3748;;;;
2020/05/19 07:35:54;;;;;;;3;1.6;;;;;;;33.43;23.5752;941.356;;;;
2020/05/19 07:38:20;;;;;;;2.4;1.4;;;;;;;33.8;24.55664;941.3531;;;;
2020/05/19 07:40:45;;;;;;;2.8;1.5;;;;;;;33.94;24.52832;941.2853;;;;
2020/05/19 07:43:11;;;;;;;4.2;1.5;;;;;;;34.62;23.70898;941.2755;;;;
2020/05/19 07:45:36;;;;;;;3.1;1.3;;;;;;;35.04;22.22266;941.3162;;;;
2020/05/19 07:48:02;;;;;;;2.6;1.6;;;;;;;34.66;22.46973;941.2874;;;;
2020/05/19 07:50:27;;;;;;;4.6;1.5;;;;;;;35.87;21.53809;941.2278;;;;
2020/05/19 07:52:57;;;;;;;2.3;1.4;;;;;;;36.03;21.50879;941.2707;;;;
2020/05/19 07:55:24;;;;;;;3.2;1.5;;;;;;;35.8;21.51074;941.1906;;;;
2020/05/19 08:05:16;;;;;;;3.1;1.5;;;;;;;36.74;20.20996;941.1649;;;;
2020/05/19 08:07:35;;;;;;;2.5;1.5;;;;;;;36.43;20.36621;941.1559;;;;
2020/05/19 08:09:52;;;;;;;3.5;1.1;;;;;;;36.5;19.89746;941.0808;;;;
2020/05/19 08:12:16;;;;;;;2.1;1.4;;;;;;;36.47;19.52051;941.1287;;;;
2020/05/19 08:14:42;;;;;;;2.5;1.3;;;;;;;36.76;20.05371;941.1566;;;;
2020/05/19 08:17:07;;;;;;;2;1.3;;;;;;;36.25;20.15332;941.101;;;;
2020/05/19 08:19:34;;;;;;;3.8;1.5;;;;;;;35.9;19.72559;941.1041;;;;
2020/05/19 08:21:59;;;;;;;4;1.6;;;;;;;35.59;20.93359;941.065;;;;
2020/05/19 08:24:25;;;;;;;3.1;1.4;;;;;;;34.48;21.6416;941.1019;;;;
2020/05/19 08:26:50;;;;;;;4.4;1.6;;;;;;;34.2;21.55566;941.1096;;;;
2020/05/19 08:29:16;;;;;;;4.5;1.4;;;;;;;34.19;21.33887;941.0746;;;;
2020/05/19 08:31:41;;;;;;;2.7;1.5;;;;;;;34.17;22.20508;941.1114;;;;
2020/05/19 08:34:08;;;;;;;7.2;1.4;;;;;;;34.31;21.92285;941.1086;;;;
2020/05/19 08:36:33;;;;;;;3;1.3;;;;;;;33.75;22.92969;941.106;;;;
2020/05/19 08:38:58;;;;;;;2.3;1.3;;;;;;;33.24;22.3877;941.1145;;;;
2020/05/19 08:41:23;;;;;;;1.9;1.3;;;;;;;32.81;24.33496;941.1862;;;;
2020/05/19 08:43:48;;;;;;;5.7;1.7;;;;;;;32.47;24.46094;941.2006;;;;
2020/05/19 08:46:14;;;;;;;2.5;1.4;;;;;;;32;24.44824;941.157;;;;
2020/05/19 08:48:39;;;;;;;2.4;1.5;;;;;;;30.58;26.5332;941.144;;;;
2020/05/19 08:51:05;;;;;;;3.3;1.7;;;;;;;29.12;28.45996;941.1959;;;;
2020/05/19 08:53:30;;;;;;;3;1.8;;;;;;;28.06;30.99512;941.2059;;;;
2020/05/19 08:55:55;;;;;;;4.2;1.9;;;;;;;27.24;32.07715;941.1677;;;;
2020/05/19 08:58:22;;;;;;;4.1;2;;;;;;;26.6;34.22266;941.2074;;;;
2020/05/19 09:00:47;;;;;;;5.2;1.9;;;;;;;26.18;34.70996;941.2381;;;;
2020/05/19 09:03:13;;;;;;;3;1.8;;;;;;;26.08;35.30566;941.2697;;;;
2020/05/19 09:05:38;;;;;;;6.4;2;;;;;;;25.59;36.2373;941.2004;;;;
2020/05/19 09:08:04;;;;;;;4.6;1.9;;;;;;;25.02;36.86328;941.2715;;;;
2020/05/19 09:10:30;;;;;;;3.7;2.2;;;;;;;24.51;38.84961;941.2578;;;;
2020/05/19 09:12:56;;;;;;;7;1.9;;;;;;;25.18;39.07227;941.2656;;;;
2020/05/19 09:15:22;;;;;;;6.2;1.9;;;;;;;26.05;37.20801;941.178;;;;
2020/05/19 09:17:48;;;;;;;8.3;2.1;;;;;;;26.19;36.55762;941.2465;;;;
2020/05/19 09:22:38;;;;;;;5.3;2.3;;;;;;;26.74;35.8916;941.1505;;;;
2020/05/19 09:25:05;;;;;;;3.8;2;;;;;;;26.94;36.06152;941.1423;;;;
2020/05/19 09:27:29;;;;;;;6.8;2;;;;;;;27.34;35.54785;941.1308;;;;
2020/05/19 09:29:55;;;;;;;6.2;2.1;;;;;;;27.77;34.03906;941.1376;;;;
2020/05/19 09:32:20;;;;;;;7.6;2.3;;;;;;;27.91;35.18945;941.1585;;;;
2020/05/19 09:34:47;;;;;;;4.4;2.1;;;;;;;27.49;35.01465;941.1454;;;;
2020/05/19 09:37:12;;;;;;;10.3;2.5;;;;;;;27.19;36.15332;941.1756;;;;
2020/05/19 09:39:37;;;;;;;3.1;2;;;;;;;27.21;35.01563;941.1192;;;;
2020/05/19 09:42:03;;;;;;;6.5;1.9;;;;;;;27.87;34.34277;941.0762;;;;
2020/05/19 09:44:28;;;;;;;3.1;2;;;;;;;28.18;34.12988;941.1325;;;;
2020/05/19 09:46:53;;;;;;;3.5;1.9;;;;;;;28.54;34.03711;941.0756;;;;
2020/05/19 09:49:19;;;;;;;9;2.1;;;;;;;28.51;31.45508;941.0336;;;;
2020/05/19 09:51:44;;;;;;;5.8;2.1;;;;;;;28.37;33.32324;940.9704;;;;
2020/05/19 09:54:09;;;;;;;4.9;2;;;;;;;28.32;33.47363;940.9587;;;;
2020/05/19 09:56:34;;;;;;;3.1;2;;;;;;;28.31;32.90332;940.9233;;;;
2020/05/19 09:59:00;;;;;;;4.3;1.8;;;;;;;28.24;35.59473;940.8582;;;;
2020/05/19 10:01:25;;;;;;;6;1.8;;;;;;;28.46;33.10352;940.848;;;;
2020/05/19 10:04:10;;;;;;;3.2;1.9;;;;;;;28.48;30.8457;940.8123;;;;
2020/05/19 10:06:16;;;;;;;2.5;1.6;;;;;;;28.57;31.95801;940.8278;;;;
2020/05/19 10:08:41;;;;;;;7.7;2.1;;;;;;;28.34;33.27344;940.7886;;;;
2020/05/19 10:11:07;;;;;;;7.3;2.2;;;;;;;27.98;31.58398;940.7806;;;;
2020/05/19 10:13:32;;;;;;;2.6;1.8;;;;;;;27.9;33.74023;940.7547;;;;
2020/05/19 10:15:58;;;;;;;4.1;1.7;;;;;;;28.04;33.42969;940.7678;;;;
2020/05/19 10:18:30;;;;;;;5.8;2.8;;;;;;;28.17;33.13086;940.6958;;;;
2020/05/19 10:20:59;;;;;;;6.1;2.6;;;;;;;28.16;33.16504;940.7254;;;;
2020/05/19 10:23:24;;;;;;;5.7;2.5;;;;;;;28.28;32.85352;940.7369;;;;
2020/05/19 10:25:49;;;;;;;9;3.4;;;;;;;28.84;31.21582;940.6533;;;;
2020/05/19 10:28:16;;;;;;;7.2;4.1;;;;;;;29.03;32.37207;940.6545;;;;
2020/05/19 10:30:40;;;;;;;6.7;3.3;;;;;;;29.1;32.44824;940.642;;;;
2020/05/19 10:33:05;;;;;;;7.7;3.1;;;;;;;29.26;33.40137;940.5579;;;;
2020/05/19 10:35:30;;;;;;;4.9;2.6;;;;;;;28.37;33.63184;940.4641;;;;
2020/05/19 10:40:21;;;;;;;13.8;6.9;;;;;;;28.75;33.03027;940.4117;;;;
2020/05/19 10:42:46;;;;;;;6.2;4.4;;;;;;;28.94;32.0918;940.4473;;;;
2020/05/19 10:45:11;;;;;;;6.9;3.5;;;;;;;28.64;30.98828;940.397;;;;
2020/05/19 10:47:36;;;;;;;5.5;2.6;;;;;;;28.64;33.78418;940.4274;;;;
2020/05/19 10:50:01;;;;;;;3.4;2.1;;;;;;;29;32.77441;940.3716;;;;
2020/05/19 10:52:26;;;;;;;3.4;2;;;;;;;28.91;32.61328;940.3206;;;;
2020/05/19 10:54:51;;;;;;;6.5;1.7;;;;;;;29.02;33.50293;940.3228;;;;
2020/05/19 10:57:17;;;;;;;4;1.7;;;;;;;29.01;33.52637;940.2464;;;;
2020/05/19 10:59:42;;;;;;;3.2;1.8;;;;;;;28.47;31.66602;940.304;;;;
2020/05/19 11:02:08;;;;;;;2.1;1.7;;;;;;;28.69;30.74121;940.2425;;;;
2020/05/19 11:04:33;;;;;;;2.7;1.7;;;;;;;28.97;32.50977;940.2467;;;;
2020/05/19 11:07:05;;;;;;;4.3;1.6;;;;;;;29.02;32.27637;940.2057;;;;
2020/05/19 11:09:39;;;;;;;3.7;1.5;;;;;;;28.51;32.76172;940.2357;;;;
2020/05/19 11:12:04;;;;;;;4.3;1.7;;;;;;;28.67;34.21387;940.1707;;;;
2020/05/19 11:14:32;;;;;;;2.8;1.7;;;;;;;28.41;32.8623;940.037;;;;
2020/05/19 11:16:58;;;;;;;3.1;1.6;;;;;;;28.26;36.07227;940.053;;;;
2020/05/19 11:19:23;;;;;;;5.2;1.8;;;;;;;28.24;33.21875;940.0126;;;;
2020/05/19 11:21:48;;;;;;;3.1;1.7;;;;;;;28.06;33.59766;940.0469;;;;
2020/05/19 11:24:13;;;;;;;5.3;1.7;;;;;;;27.87;34.08203;939.9933;;;;
2020/05/19 11:26:38;;;;;;;4;1.9;;;;;;;27.29;33.6582;939.9131;;;;
2020/05/19 11:29:04;;;;;;;3.8;1.7;;;;;;;27;34.39453;939.8747;;;;
2020/05/19 11:31:29;;;;;;;4.9;2;;;;;;;26.99;35.78125;939.8665;;;;
2020/05/19 11:33:54;;;;;;;5.2;1.7;;;;;;;26.83;36.79883;939.867;;;;
2020/05/19 11:36:19;;;;;;;2.9;1.7;;;;;;;26.82;35.89844;939.7676;;;;
2020/05/19 11:38:44;;;;;;;4;1.9;;;;;;;27.06;37.05566;939.7692;;;;
2020/05/19 11:41:10;;;;;;;2.8;1.7;;;;;;;27.27;35.15039;939.7163;;;;
2020/05/19 11:43:36;;;;;;;2.9;1.7;;;;;;;26.81;34.39258;939.6717;;;;
2020/05/19 11:46:00;;;;;;;2.7;1.9;;;;;;;26.79;37.30469;939.7522;;;;
2020/05/19 11:48:25;;;;;;;4.8;1.9;;;;;;;26.8;37.30664;939.6863;;;;
2020/05/19 11:50:50;;;;;;;2.7;1.7;;;;;;;26.4;37.04785;939.6969;;;;
2020/05/19 11:53:15;;;;;;;3.4;1.8;;;;;;;26.08;36.01563;939.6541;;;;
2020/05/19 11:55:41;;;;;;;4.4;1.7;;;;;;;25.83;37.85156;939.7377;;;;
2020/05/19 11:58:06;;;;;;;4.2;1.8;;;;;;;25.71;35.85547;939.6559;;;;
2020/05/19 12:00:31;;;;;;;5.6;1.9;;;;;;;25.6;37.34766;939.6058;;;;
2020/05/19 12:02:56;;;;;;;4.4;1.7;;;;;;;25.48;36.12109;939.6122;;;;
2020/05/19 12:05:21;;;;;;;5.4;1.8;;;;;;;25.13;37.71094;939.6052;;;;
2020/05/19 12:07:48;;;;;;;4.3;1.7;;;;;;;25.15;39.05762;939.5578;;;;
2020/05/19 12:10:13;;;;;;;4.4;1.7;;;;;;;25.13;39.61035;939.546;;;;
2020/05/19 12:12:39;;;;;;;3;1.8;;;;;;;24.91;41.10059;939.5086;;;;
2020/05/19 12:15:04;;;;;;;3;1.7;;;;;;;25.22;38.09473;939.4408;;;;
2020/05/19 12:17:32;;;;;;;3.4;1.7;;;;;;;25.5;39.23047;939.3761;;;;
2020/05/19 12:20:01;;;;;;;3.1;1.6;;;;;;;25.8;37.84863;939.3963;;;;
2020/05/19 12:22:36;;;;;;;5;1.6;;;;;;;26.1;37.23633;939.3097;;;;
2020/05/19 12:24:48;;;;;;;2.3;1.6;;;;;;;26.36;37.02051;939.3176;;;;
2020/05/19 12:27:12;;;;;;;4.3;1.6;;;;;;;26.46;35.77441;939.2661;;;;
2020/05/19 12:29:37;;;;;;;5.7;1.4;;;;;;;26.54;35.33105;939.2972;;;;
2020/05/19 12:32:02;;;;;;;2.7;1.6;;;;;;;26.62;37.07813;939.2784;;;;
2020/05/19 12:34:27;;;;;;;5.6;1.5;;;;;;;26.59;36.3291;939.2443;;;;
2020/05/19 12:36:52;;;;;;;2.6;1.5;;;;;;;26.81;36.25195;939.2399;;;;
2020/05/19 12:39:18;;;;;;;2.8;1.5;;;;;;;27.07;35.68164;939.2128;;;;
2020/05/19 12:41:53;;;;;;;3.1;1.5;;;;;;;27.15;35.62793;939.1538;;;;
2020/05/19 12:44:08;;;;;;;3.2;1.3;;;;;;;27.36;35.34766;939.2386;;;;
2020/05/19 12:46:34;;;;;;;2.5;1.3;;;;;;;27.56;32.00586;939.1337;;;;
2020/05/19 12:49:00;;;;;;;4.6;1.4;;;;;;;27.34;35.0625;939.1283;;;;
2020/05/19 12:51:25;;;;;;;5.3;1.6;;;;;;;26.83;34.95117;939.0712;;;;
2020/05/19 12:54:41;;;;;;;3.3;1.3;;;;;;;26.62;36.78125;939.1685;;;;
2020/05/19 12:58:42;;;;;;;3.8;1.3;;;;;;;26.89;31.88672;939.0946;;;;
2020/05/19 13:15:56;;;;;;;5.1;1.4;;;;;;;27.16;32.3916;938.9746;;;;
2020/05/19 13:18:31;;;;;;;2.5;1.1;;;;;;;27.03;33.76855;939.0017;;;;
2020/05/19 13:20:58;;;;;;;2.1;1.3;;;;;;;27.05;34.57617;938.9437;;;;
2020/05/19 13:30:55;;;;;;;4.1;1.3;;;;;;;26.61;35.43066;938.8194;;;;
2020/05/19 13:59:24;;;;;;;3.6;1.4;;;;;;;26.63;34.03516;938.7039;;;;
2020/05/19 14:07:39;;;;;;;2.5;1.2;;;;;;;26.28;35.90137;938.7548;;;;
2020/05/19 14:09:19;;;;;;;6;1.5;;;;;;;26.13;36.11426;938.6647;;;;
2020/05/19 14:22:48;;;;;;;3.2;1.4;;;;;;;26.1;35.46191;938.6524;;;;
2020/05/19 14:32:40;;;;;;;4.4;1.6;;;;;;;25.88;36.83984;938.6108;;;;
2020/05/19 14:47:32;;;;;;;3.9;1.7;;;;;;;24.71;39.86816;938.5942;;;;
2020/05/19 14:49:58;;;;;;;4.5;1.5;;;;;;;24.62;39.83691;938.5864;;;;
2020/05/19 14:52:24;;;;;;;4.4;1.7;;;;;;;24.35;38.8584;938.6305;;;;
2020/05/19 14:54:50;;;;;;;4.8;1.7;;;;;;;24.31;40.19824;938.6511;;;;
2020/05/19 14:57:15;;;;;;;4;1.9;;;;;;;23.98;39.81445;938.657;;;;
2020/05/19 14:59:40;;;;;;;5.3;1.6;;;;;;;23.89;40.77148;938.6492;;;;
2020/05/19 15:02:05;;;;;;;8.2;1.9;;;;;;;23.82;41.15332;938.6642;;;;
2020/05/19 15:04:30;;;;;;;7.9;1.9;;;;;;;23.83;41.31934;938.7258;;;;
2020/05/19 15:06:55;;;;;;;3.7;2;;;;;;;23.73;41.41699;938.6945;;;;
2020/05/19 15:09:20;;;;;;;3.8;1.5;;;;;;;23.76;41.35938;938.7308;;;;
2020/05/19 15:11:46;;;;;;;3.4;1.6;;;;;;;23.78;41.62109;938.7135;;;;
2020/05/19 15:14:11;;;;;;;4.4;1.7;;;;;;;23.87;41.09961;938.6461;;;;
2020/05/19 15:16:36;;;;;;;3.8;1.8;;;;;;;24.07;39.6582;938.7037;;;;
2020/05/19 15:21:31;;;;;;;3.5;1.7;;;;;;;24.46;39.58594;938.6613;;;;
2020/05/19 15:23:53;;;;;;;4.7;1.6;;;;;;;24.56;40.29004;938.6714;;;;
2020/05/19 15:26:18;;;;;;;4.8;1.8;;;;;;;24.73;42.49902;938.7197;;;;
2020/05/19 15:28:43;;;;;;;4.4;1.6;;;;;;;24.46;41.9668;938.6573;;;;
2020/05/19 15:31:08;;;;;;;5.1;1.5;;;;;;;24.27;40.87695;938.6519;;;;
2020/05/19 15:33:37;;;;;;;3.9;1.7;;;;;;;24.12;42.6416;938.6283;;;;
2020/05/19 15:36:17;;;;;;;3.5;1.8;;;;;;;23.93;41.48242;938.6564;;;;
2020/05/19 15:38:23;;;;;;;5.9;1.9;;;;;;;23.64;41.19629;938.6972;;;;
2020/05/19 15:40:48;;;;;;;7.1;2.3;;;;;;;23.56;43.08203;938.6994;;;;
2020/05/19 15:43:14;;;;;;;3.2;1.5;;;;;;;23.38;41.52441;938.6295;;;;
2020/05/19 15:45:39;;;;;;;4;2.1;;;;;;;23.29;43.16113;938.6578;;;;
2020/05/19 15:48:05;;;;;;;3.1;2;;;;;;;23.23;43.59082;938.6314;;;;
2020/05/19 15:50:30;;;;;;;4.4;2.3;;;;;;;23.24;44.42676;938.6147;;;;
2020/05/19 15:52:57;;;;;;;3.7;1.9;;;;;;;23.28;44.18262;938.6621;;;;
2020/05/19 15:55:20;;;;;;;5.1;1.7;;;;;;;23.17;42.98535;938.6156;;;;
2020/05/19 15:57:45;;;;;;;4.3;1.7;;;;;;;23.16;42.72656;938.6426;;;;
2020/05/19 16:05:36;;;;;;;4;2;;;;;;;22.95;43.32813;938.6213;;;;
2020/05/19 16:07:26;;;;;;;6.5;2;;;;;;;22.9;43.74707;938.645;;;;
2020/05/19 16:09:51;;;;;;;5.2;1.9;;;;;;;22.78;43.82813;938.6418;;;;
2020/05/19 16:12:16;;;;;;;6.2;2;;;;;;;22.77;43.96875;938.6379;;;;
2020/05/19 16:14:42;;;;;;;7.3;2.9;;;;;;;22.75;43.7666;938.6592;;;;
2020/05/19 16:19:33;;;;;;;7.2;3;;;;;;;22.75;44.47266;938.6727;;;;
2020/05/19 16:22:01;;;;;;;21.9;6.8;;;;;;;22.86;45.13965;938.6456;;;;
2020/05/19 16:24:26;;;;;;;28.4;8.6;;;;;;;22.97;45.31543;938.6142;;;;
2020/05/19 16:26:51;;;;;;;7.4;2.6;;;;;;;23.01;46.04785;938.6051;;;;
2020/05/19 16:29:16;;;;;;;6;1.7;;;;;;;22.95;44.32715;938.6262;;;;
2020/05/19 16:31:41;;;;;;;5.1;1.6;;;;;;;22.99;43.32031;938.6685;;;;
2020/05/19 16:34:06;;;;;;;2.4;1.5;;;;;;;23.08;42.75293;938.6404;;;;
2020/05/19 16:36:32;;;;;;;6.8;2.5;;;;;;;23.13;43.36914;938.6506;;;;
2020/05/19 16:38:56;;;;;;;12.1;2.3;;;;;;;23.13;43.40527;938.6473;;;;
2020/05/19 16:41:22;;;;;;;7.8;2.3;;;;;;;23.17;42.35156;938.6082;;;;
2020/05/19 16:43:47;;;;;;;5.6;2.4;;;;;;;23.18;42.5166;938.5657;;;;
2020/05/19 16:46:12;;;;;;;7.8;1.9;;;;;;;23.15;41.64355;938.6115;;;;
2020/05/19 16:48:37;;;;;;;2.1;1.6;;;;;;;23.18;41.3418;938.598;;;;
2020/05/19 16:51:03;;;;;;;3;1.4;;;;;;;23.23;41.38086;938.5891;;;;
2020/05/19 16:53:29;;;;;;;3.5;1.4;;;;;;;23.25;41.59473;938.5648;;;;
2020/05/19 16:55:53;;;;;;;3;1.5;;;;;;;23.28;41.86816;938.5897;;;;
2020/05/19 16:58:19;;;;;;;2.1;1.3;;;;;;;23.29;43.39746;938.6211;;;;
2020/05/19 17:00:45;;;;;;;6.3;1.8;;;;;;;23.31;43.7041;938.6472;;;;
2020/05/19 17:03:10;;;;;;;7.2;2.6;;;;;;;23.35;43.33203;938.6707;;;;
2020/05/19 17:05:35;;;;;;;4.3;1.9;;;;;;;23.36;42.05176;938.671;;;;
2020/05/19 17:08:00;;;;;;;6;1.9;;;;;;;23.33;41.1084;938.6959;;;;
2020/05/19 17:10:25;;;;;;;4.1;1.5;;;;;;;23.15;41.43164;938.623;;;;
2020/05/19 17:12:50;;;;;;;3.8;1.4;;;;;;;23.04;40.55273;938.6037;;;;
2020/05/19 17:15:15;;;;;;;3;1.4;;;;;;;23.06;40.80176;938.6387;;;;
2020/05/19 17:17:47;;;;;;;2.5;1.4;;;;;;;22.99;41.85156;938.6492;;;;
2020/05/19 17:20:06;;;;;;;3.7;1.3;;;;;;;22.96;42.34375;938.6469;;;;
2020/05/19 17:22:31;;;;;;;4.4;1.6;;;;;;;22.94;44.1377;938.6412;;;;
2020/05/19 17:24:57;;;;;;;4.1;1.4;;;;;;;22.98;44.10645;938.5919;;;;
2020/05/19 17:27:22;;;;;;;3.5;1.4;;;;;;;22.91;42.77344;938.5748;;;;
2020/05/19 17:29:47;;;;;;;3.7;1.6;;;;;;;22.93;44.48926;938.7511;;;;
2020/05/19 17:32:12;;;;;;;4.1;1.7;;;;;;;22.93;45.24121;938.6926;;;;
2020/05/19 17:34:38;;;;;;;4.1;1.6;;;;;;;22.82;44.7832;938.764;;;;
2020/05/19 17:37:03;;;;;;;3.6;1.5;;;;;;;22.69;46.03809;938.7296;;;;
2020/05/19 17:39:28;;;;;;;2.6;1.7;;;;;;;22.62;45.38477;938.7414;;;;
2020/05/19 17:41:53;;;;;;;4.3;1.8;;;;;;;22.54;46.58496;938.8183;;;;
2020/05/19 17:44:18;;;;;;;2.7;1.5;;;;;;;22.44;45.89551;938.8713;;;;
2020/05/19 17:46:44;;;;;;;2.1;1.5;;;;;;;22.39;44.57617;938.807;;;;
2020/05/19 17:49:09;;;;;;;2.1;1.5;;;;;;;22.34;43.62012;938.7861;;;;
2020/05/19 17:51:35;;;;;;;3.5;1.4;;;;;;;22.31;44.80273;938.8178;;;;
2020/05/19 17:54:01;;;;;;;2.8;1.4;;;;;;;22.32;44.24121;938.7623;;;;
2020/05/19 17:56:25;;;;;;;4.2;1.4;;;;;;;22.31;43.71191;938.8813;;;;
2020/05/19 17:58:50;;;;;;;5.4;1.4;;;;;;;22.05;42.26758;938.7941;;;;